Time;durP1;ratioP1;P1;durP2;ratioP2;P2;SDS_P1;SDS_P2;PMS_P1;PMS_P2;Temp;Humidity;BMP_temperature;BMP_pressure;BME280_temperature;BME280_humidity;BME280_pressure;Samples;Min_cycle;Max_cycle;Signal;HPM_P1;HPM_P2
2022/10/01 00:00:50;;;;;;;1.48;0.70;;;11.50;99.90;;;;;;5012692;28;20116;-81
2022/10/01 00:03:17;;;;;;;1.70;0.85;;;11.40;99.90;;;;;;5011813;28;20025;-81
2022/10/01 00:05:44;;;;;;;1.65;0.82;;;11.50;99.90;;;;;;5012282;28;20017;-81
2022/10/01 00:08:12;;;;;;;2.38;1.15;;;11.40;99.90;;;;;;5027694;28;20030;-81
2022/10/01 00:10:40;;;;;;;1.85;0.80;;;11.40;99.90;;;;;;5046079;28;20021;-83
2022/10/01 00:13:06;;;;;;;1.65;0.75;;;11.30;99.90;;;;;;5012070;28;20037;-81
2022/10/01 00:15:32;;;;;;;2.10;0.60;;;11.40;99.90;;;;;;5027385;28;20029;-81
2022/10/01 00:17:58;;;;;;;1.40;0.68;;;11.40;99.90;;;;;;5028394;28;20032;-80
2022/10/01 00:20:24;;;;;;;1.80;0.52;;;11.40;99.90;;;;;;5011392;28;20087;-81
2022/10/01 00:22:50;;;;;;;1.30;0.50;;;11.40;99.90;;;;;;5011689;28;20025;-79
2022/10/01 00:25:15;;;;;;;1.58;0.70;;;11.40;99.90;;;;;;5028966;28;20021;-80
2022/10/01 00:27:44;;;;;;;2.97;1.13;;;11.40;99.90;;;;;;5028599;28;20090;-81
2022/10/01 00:30:10;;;;;;;2.80;0.88;;;11.30;99.90;;;;;;5027173;28;20078;-80
2022/10/01 00:32:37;;;;;;;2.45;0.88;;;11.30;99.90;;;;;;5042460;28;20478;-82
2022/10/01 00:35:08;;;;;;;2.40;1.30;;;11.30;99.90;;;;;;5012263;28;20026;-82
2022/10/01 00:37:35;;;;;;;1.75;0.90;;;11.30;99.90;;;;;;5028511;28;20040;-80
2022/10/01 00:40:01;;;;;;;1.92;0.70;;;11.20;99.90;;;;;;5011188;28;20467;-81
2022/10/01 00:42:26;;;;;;;2.25;0.80;;;11.30;99.90;;;;;;5029325;28;20052;-83
2022/10/01 00:44:52;;;;;;;2.05;0.90;;;11.30;99.90;;;;;;5027924;28;20467;-83
2022/10/01 00:47:21;;;;;;;2.67;0.93;;;11.30;99.90;;;;;;5011313;28;20033;-84
2022/10/01 00:49:49;;;;;;;2.38;1.10;;;11.20;99.90;;;;;;5010883;28;20111;-83
2022/10/01 00:52:19;;;;;;;3.83;1.20;;;11.30;99.90;;;;;;5027660;28;20033;-84
2022/10/01 00:55:03;;;;;;;2.85;0.90;;;11.20;99.90;;;;;;5044315;28;20033;-84
2022/10/01 00:57:30;;;;;;;2.53;0.80;;;11.20;99.90;;;;;;5041157;28;20033;-83
2022/10/01 01:00:00;;;;;;;1.75;0.57;;;11.20;99.90;;;;;;5028139;28;20123;-81
2022/10/01 01:02:25;;;;;;;;;;;11.20;99.90;;;;;;5012124;28;20038;-82
2022/10/01 01:04:51;;;;;;;1.95;0.70;;;11.10;99.90;;;;;;5008658;28;19913;-83
2022/10/01 01:07:17;;;;;;;2.38;1.08;;;11.20;99.90;;;;;;5025762;28;20033;-84
2022/10/01 01:09:45;;;;;;;2.00;1.02;;;11.20;99.90;;;;;;5027561;28;20026;-84
2022/10/01 01:12:30;;;;;;;1.90;1.00;;;11.10;99.90;;;;;;5028026;28;20034;-83
2022/10/01 01:15:16;;;;;;;2.00;0.80;;;11.10;99.90;;;;;;5011799;28;20737;-81
2022/10/01 01:18:10;;;;;;;2.20;1.10;;;11.10;99.90;;;;;;5029247;28;20057;-84
2022/10/01 01:21:06;;;;;;;2.40;1.20;;;11.10;99.90;;;;;;5019138;28;20040;-83
2022/10/01 01:23:55;;;;;;;2.20;1.10;;;11.10;99.90;;;;;;5011259;28;20021;-82
2022/10/01 01:26:41;;;;;;;1.65;0.73;;;11.10;99.90;;;;;;4970880;28;20038;-85
2022/10/01 01:29:54;;;;;;;1.65;0.80;;;11.10;99.90;;;;;;4972980;28;20035;-85
2022/10/01 01:32:30;;;;;;;2.10;0.80;;;11.10;99.90;;;;;;4934612;29;20578;-87
2022/10/01 01:34:59;;;;;;;1.25;0.60;;;11.10;99.90;;;;;;4916500;29;20039;-87
2022/10/01 01:37:30;;;;;;;1.58;0.70;;;11.10;99.90;;;;;;4931513;29;20508;-84
2022/10/01 01:39:58;;;;;;;1.30;0.65;;;11.10;99.90;;;;;;4933180;29;20130;-89
2022/10/01 01:42:36;;;;;;;1.45;0.65;;;11.10;99.90;;;;;;4916181;29;21449;-89
2022/10/01 01:45:08;;;;;;;1.52;0.57;;;11.10;99.90;;;;;;4948722;29;20469;-85
2022/10/01 01:47:37;;;;;;;1.40;0.70;;;11.10;99.90;;;;;;4931595;29;20037;-84
2022/10/01 01:50:04;;;;;;;2.28;1.13;;;11.10;99.90;;;;;;4946590;29;20039;-85
2022/10/01 01:52:32;;;;;;;1.95;0.90;;;11.10;99.90;;;;;;4947831;29;20454;-84
2022/10/01 01:54:57;;;;;;;2.55;0.80;;;11.10;99.90;;;;;;4932271;29;20396;-84
2022/10/01 01:57:23;;;;;;;2.53;0.90;;;11.10;99.90;;;;;;4947954;29;20043;-86
2022/10/01 01:59:49;;;;;;;2.08;1.10;;;11.00;99.90;;;;;;4933057;29;20126;-86
2022/10/01 02:02:22;;;;;;;2.25;1.00;;;11.10;99.90;;;;;;4941842;28;20046;-84
2022/10/01 02:04:56;;;;;;;2.47;1.20;;;11.00;99.90;;;;;;5025919;28;20129;-80
2022/10/01 02:07:43;;;;;;;1.90;1.25;;;11.10;99.90;;;;;;5026504;28;20411;-88
2022/10/01 02:10:34;;;;;;;2.03;1.00;;;11.00;99.90;;;;;;5010279;28;20033;-86
2022/10/01 02:13:24;;;;;;;1.73;0.60;;;11.00;99.90;;;;;;5028498;28;20030;-87
2022/10/01 02:16:13;;;;;;;1.52;0.95;;;11.10;99.90;;;;;;5026880;28;20033;-82
2022/10/01 02:18:55;;;;;;;2.53;1.00;;;11.00;99.90;;;;;;5027444;28;20033;-91
2022/10/01 02:21:51;;;;;;;2.75;1.10;;;11.10;99.90;;;;;;5026840;28;20053;-88
2022/10/01 02:24:20;;;;;;;1.38;0.60;;;11.10;99.90;;;;;;5043539;28;20382;-85
2022/10/01 02:26:48;;;;;;;1.90;0.70;;;11.10;99.90;;;;;;5010943;28;20021;-82
2022/10/01 02:29:17;;;;;;;1.45;0.50;;;11.10;99.90;;;;;;5026673;28;20328;-87
2022/10/01 02:31:46;;;;;;;1.20;0.40;;;11.10;99.90;;;;;;5026691;28;20116;-86
2022/10/01 02:34:14;;;;;;;1.25;0.38;;;11.10;99.90;;;;;;5026593;28;20056;-90
2022/10/01 02:36:44;;;;;;;1.45;0.70;;;11.10;99.90;;;;;;5028436;28;20026;-92
2022/10/01 02:39:12;;;;;;;1.37;0.60;;;11.10;99.90;;;;;;5009995;28;20382;-83
2022/10/01 02:41:37;;;;;;;1.52;0.85;;;11.10;99.90;;;;;;5009863;28;20037;-85
2022/10/01 02:44:15;;;;;;;1.70;0.80;;;11.10;99.90;;;;;;5010163;28;20494;-89
2022/10/01 02:47:08;;;;;;;2.30;0.60;;;11.20;99.90;;;;;;5025930;28;20086;-87
2022/10/01 02:49:35;;;;;;;1.13;0.50;;;11.20;99.90;;;;;;5027494;28;20036;-89
2022/10/01 02:52:18;;;;;;;1.52;0.60;;;11.20;99.90;;;;;;5010777;28;20199;-82
2022/10/01 02:54:59;;;;;;;0.98;0.50;;;11.20;99.90;;;;;;5010027;28;20054;-86
2022/10/01 02:57:28;;;;;;;1.73;0.70;;;11.20;99.90;;;;;;5043080;28;20034;-86
2022/10/01 02:59:56;;;;;;;2.28;1.05;;;11.20;99.90;;;;;;5010747;28;20458;-88
2022/10/01 03:02:26;;;;;;;1.38;0.55;;;11.20;99.90;;;;;;5025553;28;20121;-82
2022/10/01 03:04:53;;;;;;;0.90;0.50;;;11.20;99.90;;;;;;5027831;28;20033;-86
2022/10/01 03:07:19;;;;;;;2.42;0.50;;;11.20;99.90;;;;;;5010391;28;20076;-81
2022/10/01 03:09:44;;;;;;;1.13;0.47;;;11.20;99.90;;;;;;5027073;28;20056;-93
2022/10/01 03:12:10;;;;;;;0.98;0.40;;;11.20;99.90;;;;;;5027476;28;20112;-87
2022/10/01 03:14:38;;;;;;;1.42;0.40;;;11.20;99.90;;;;;;5010678;28;20083;-87
2022/10/01 03:17:05;;;;;;;0.90;0.50;;;11.10;99.90;;;;;;5025910;28;20022;-87
2022/10/01 03:19:31;;;;;;;0.90;0.40;;;11.20;99.90;;;;;;5010069;28;20036;-92
2022/10/01 03:21:56;;;;;;;1.00;0.50;;;11.20;99.90;;;;;;5031979;28;20030;-87
2022/10/01 03:24:22;;;;;;;1.42;0.40;;;11.20;99.90;;;;;;5023948;28;20117;-85
2022/10/01 03:26:48;;;;;;;0.75;0.40;;;11.20;99.90;;;;;;5010270;28;20025;-90
2022/10/01 03:29:14;;;;;;;1.20;0.40;;;11.20;99.90;;;;;;5007439;28;20033;-89
2022/10/01 03:31:40;;;;;;;1.65;0.47;;;11.10;99.90;;;;;;5027730;28;20030;-92
2022/10/01 03:34:05;;;;;;;1.90;0.40;;;11.10;99.90;;;;;;5030279;28;20482;-94
2022/10/01 03:36:31;;;;;;;1.38;0.40;;;11.20;99.90;;;;;;5027209;28;20029;-93
2022/10/01 03:38:57;;;;;;;0.80;0.40;;;11.20;99.90;;;;;;5014415;28;20030;-89
2022/10/01 03:41:22;;;;;;;1.15;0.60;;;11.20;99.90;;;;;;5010899;28;20033;-93
2022/10/01 03:43:48;;;;;;;1.02;0.50;;;11.20;99.90;;;;;;5029919;28;20029;-86
2022/10/01 03:46:14;;;;;;;0.85;0.40;;;11.20;99.90;;;;;;5029490;28;20030;-92
2022/10/01 03:48:39;;;;;;;0.70;0.40;;;11.20;99.90;;;;;;5013936;28;20022;-92
2022/10/01 03:51:05;;;;;;;2.55;0.40;;;11.20;99.90;;;;;;5013317;28;20505;-83
2022/10/01 03:53:31;;;;;;;0.70;0.30;;;11.20;99.90;;;;;;5013310;28;20096;-90
2022/10/01 03:55:58;;;;;;;1.13;0.30;;;11.20;99.90;;;;;;5014038;28;20021;-88
2022/10/01 03:58:24;;;;;;;1.60;0.30;;;11.30;99.90;;;;;;5013099;28;20111;-84
2022/10/01 04:00:50;;;;;;;0.63;0.20;;;11.20;99.90;;;;;;5013226;28;20029;-87
2022/10/01 04:03:17;;;;;;;1.13;0.40;;;11.30;99.90;;;;;;5028992;28;20036;-86
2022/10/01 04:05:43;;;;;;;1.10;0.30;;;11.30;99.90;;;;;;5030347;28;20033;-92
2022/10/01 04:08:10;;;;;;;0.50;0.20;;;11.30;99.90;;;;;;5029462;28;20545;-89
2022/10/01 04:10:36;;;;;;;0.80;0.17;;;11.30;99.90;;;;;;5041060;28;20113;-90
2022/10/01 04:13:02;;;;;;;0.55;0.20;;;11.30;99.90;;;;;;5028285;28;20124;-88
2022/10/01 04:15:28;;;;;;;0.50;0.20;;;11.30;99.90;;;;;;5028341;28;20079;-91
2022/10/01 04:17:53;;;;;;;1.20;0.20;;;11.30;99.90;;;;;;5012770;28;20057;-81
2022/10/01 04:20:19;;;;;;;0.43;0.20;;;11.30;99.90;;;;;;5029403;28;20478;-88
2022/10/01 04:22:45;;;;;;;0.70;0.15;;;11.40;99.90;;;;;;5013501;28;20041;-90
2022/10/01 04:25:12;;;;;;;0.40;0.20;;;11.30;99.90;;;;;;5029088;28;20041;-85
2022/10/01 04:27:39;;;;;;;0.40;0.20;;;11.30;99.90;;;;;;5028742;28;20030;-91
2022/10/01 04:30:07;;;;;;;0.35;0.10;;;11.40;99.90;;;;;;5011893;28;20018;-84
2022/10/01 04:32:33;;;;;;;0.45;0.20;;;11.40;99.90;;;;;;5028338;28;20041;-80
2022/10/01 04:34:59;;;;;;;0.50;0.20;;;11.40;99.90;;;;;;5030201;28;20466;-89
2022/10/01 04:37:26;;;;;;;1.23;0.20;;;11.40;99.90;;;;;;5028990;28;20060;-86
2022/10/01 04:39:52;;;;;;;1.65;0.20;;;11.40;99.90;;;;;;5027988;28;20430;-87
2022/10/01 04:42:18;;;;;;;0.57;0.10;;;11.50;99.90;;;;;;5011534;28;20064;-85
2022/10/01 04:44:43;;;;;;;0.63;0.20;;;11.50;99.90;;;;;;5030299;28;20028;-87
2022/10/01 04:47:09;;;;;;;0.38;0.10;;;11.50;99.90;;;;;;5012323;28;20404;-87
2022/10/01 04:49:35;;;;;;;0.22;0.10;;;11.50;99.90;;;;;;5029077;28;20509;-86
2022/10/01 04:52:02;;;;;;;0.65;0.20;;;11.50;99.90;;;;;;5028727;28;20314;-84
2022/10/01 04:54:28;;;;;;;0.32;0.13;;;11.50;99.90;;;;;;5029332;28;20175;-87
2022/10/01 04:56:54;;;;;;;0.30;0.10;;;11.50;99.90;;;;;;5012421;28;20105;-90
2022/10/01 04:59:19;;;;;;;0.30;0.10;;;11.50;99.90;;;;;;5045162;28;20029;-86
2022/10/01 05:01:45;;;;;;;1.80;0.20;;;11.50;99.90;;;;;;5029000;28;20057;-84
2022/10/01 05:04:11;;;;;;;0.40;0.20;;;11.60;99.90;;;;;;5028227;28;20115;-88
2022/10/01 05:06:37;;;;;;;0.70;0.20;;;11.60;99.90;;;;;;5026598;28;20160;-88
2022/10/01 05:09:03;;;;;;;0.70;0.20;;;11.60;99.90;;;;;;5011929;28;20119;-87
2022/10/01 05:11:29;;;;;;;0.50;0.15;;;11.70;99.90;;;;;;5011731;28;20037;-87
2022/10/01 05:13:55;;;;;;;0.90;0.20;;;11.60;99.90;;;;;;5028613;28;20171;-89
2022/10/01 05:16:21;;;;;;;0.43;0.20;;;11.70;99.90;;;;;;5010621;28;20026;-84
2022/10/01 05:18:47;;;;;;;0.60;0.20;;;11.70;99.90;;;;;;5011936;28;20037;-88
2022/10/01 05:21:14;;;;;;;1.05;0.20;;;11.70;99.90;;;;;;5011083;28;20024;-89
2022/10/01 05:23:40;;;;;;;0.47;0.20;;;11.80;99.90;;;;;;5011533;28;20025;-88
2022/10/01 05:26:07;;;;;;;0.88;0.10;;;11.80;99.90;;;;;;5027109;28;20037;-88
2022/10/01 05:28:34;;;;;;;0.50;0.20;;;11.80;99.90;;;;;;5027830;28;20120;-85
2022/10/01 05:31:01;;;;;;;0.52;0.20;;;11.90;99.90;;;;;;5028561;28;20482;-81
2022/10/01 05:33:28;;;;;;;0.70;0.17;;;11.90;99.90;;;;;;5028133;28;20075;-89
2022/10/01 05:35:55;;;;;;;0.73;0.20;;;11.80;99.90;;;;;;5028379;28;20474;-87
2022/10/01 05:38:21;;;;;;;0.45;0.20;;;11.90;99.90;;;;;;5044174;28;20031;-86
2022/10/01 05:40:47;;;;;;;1.15;0.15;;;11.90;99.90;;;;;;5027848;28;20104;-86
2022/10/01 05:43:13;;;;;;;0.52;0.10;;;11.90;99.90;;;;;;5012864;28;20092;-86
2022/10/01 05:45:39;;;;;;;0.43;0.20;;;11.90;99.90;;;;;;5014034;28;20029;-92
2022/10/01 05:48:07;;;;;;;1.23;0.30;;;12.00;99.90;;;;;;5008055;28;20034;-85
2022/10/01 05:50:38;;;;;;;1.05;0.40;;;12.00;99.90;;;;;;5007884;28;20026;-87
2022/10/01 05:53:05;;;;;;;0.80;0.30;;;12.00;99.90;;;;;;4999027;28;20080;-86
2022/10/01 05:55:33;;;;;;;0.75;0.22;;;12.00;99.90;;;;;;5023104;28;20080;-85
2022/10/01 05:58:09;;;;;;;0.75;0.20;;;12.00;99.90;;;;;;5006642;28;20030;-89
2022/10/01 06:00:36;;;;;;;1.35;0.30;;;12.00;99.90;;;;;;5023654;28;20029;-88
2022/10/01 06:03:03;;;;;;;0.85;0.32;;;12.10;99.90;;;;;;5024400;28;20076;-81
2022/10/01 06:05:30;;;;;;;1.48;0.30;;;12.00;99.90;;;;;;5007851;28;20394;-90
2022/10/01 06:07:56;;;;;;;1.40;0.30;;;12.10;99.90;;;;;;5023964;28;20461;-88
2022/10/01 06:10:22;;;;;;;0.73;0.25;;;12.10;99.90;;;;;;5008523;28;20079;-89
2022/10/01 06:12:48;;;;;;;0.50;0.20;;;12.10;99.90;;;;;;5007827;28;20121;-83
2022/10/01 06:15:16;;;;;;;3.58;0.20;;;12.10;99.90;;;;;;5006611;28;20034;-90
2022/10/01 06:17:44;;;;;;;0.90;0.30;;;12.10;99.90;;;;;;5011952;28;20045;-88
2022/10/01 06:20:12;;;;;;;1.20;0.20;;;12.20;99.90;;;;;;5022610;28;20087;-84
2022/10/01 06:22:39;;;;;;;0.65;0.25;;;12.20;99.90;;;;;;5010763;28;20049;-83
2022/10/01 06:25:06;;;;;;;0.90;0.30;;;12.20;99.90;;;;;;5010717;28;20034;-83
2022/10/01 06:27:31;;;;;;;0.70;0.30;;;12.20;99.90;;;;;;5022525;28;20030;-84
2022/10/01 06:29:57;;;;;;;0.80;0.40;;;12.30;99.90;;;;;;5006680;28;20026;-83
2022/10/01 06:32:22;;;;;;;0.90;0.30;;;12.30;99.90;;;;;;5006831;28;20034;-89
2022/10/01 06:34:48;;;;;;;0.90;0.30;;;12.20;99.90;;;;;;5007019;28;20116;-83
2022/10/01 06:37:14;;;;;;;1.65;0.40;;;12.30;99.90;;;;;;5009657;28;20025;-88
2022/10/01 06:39:40;;;;;;;0.90;0.50;;;12.40;99.90;;;;;;5005587;28;20034;-85
2022/10/01 06:42:06;;;;;;;1.55;0.40;;;12.40;99.90;;;;;;5006689;28;20050;-85
2022/10/01 06:44:31;;;;;;;0.98;0.43;;;12.30;99.90;;;;;;5022156;28;20044;-82
2022/10/01 06:46:57;;;;;;;3.47;1.08;;;12.40;99.90;;;;;;5007045;28;20026;-84
2022/10/01 06:49:23;;;;;;;1.27;0.50;;;12.50;99.90;;;;;;5022298;28;20038;-86
2022/10/01 06:54:46;;;;;;;3.38;1.27;;;12.50;99.90;;;;;;4966218;28;20116;-84
2022/10/01 06:57:12;;;;;;;1.30;0.60;;;12.70;99.90;;;;;;4967216;28;20023;-87
2022/10/01 06:59:38;;;;;;;1.10;0.60;;;12.70;99.90;;;;;;4965825;28;20471;-83
2022/10/01 07:02:04;;;;;;;2.35;1.00;;;12.80;99.90;;;;;;4965902;28;20157;-84
2022/10/01 07:04:30;;;;;;;2.60;0.90;;;12.80;99.90;;;;;;4948265;28;20197;-86
2022/10/01 07:06:56;;;;;;;1.77;0.82;;;12.80;99.90;;;;;;4953244;28;20517;-83
2022/10/01 07:09:24;;;;;;;1.40;0.57;;;12.80;99.90;;;;;;4968976;28;20030;-86
2022/10/01 07:11:51;;;;;;;1.70;1.30;;;12.80;99.90;;;;;;4969688;28;20031;-87
2022/10/01 07:14:18;;;;;;;1.73;1.30;;;12.90;99.90;;;;;;4969246;28;20047;-85
2022/10/01 07:16:44;;;;;;;1.85;0.82;;;13.00;99.90;;;;;;4970224;28;20089;-84
2022/10/01 07:19:10;;;;;;;2.28;1.08;;;13.00;99.90;;;;;;4969723;28;20069;-83
2022/10/01 07:21:36;;;;;;;3.10;1.50;;;13.10;99.90;;;;;;4970280;28;20023;-89
2022/10/01 07:24:02;;;;;;;3.25;1.40;;;13.20;99.90;;;;;;4970097;28;20468;-82
2022/10/01 07:26:27;;;;;;;4.03;2.08;;;13.20;99.90;;;;;;4969467;28;20037;-86
2022/10/01 07:28:54;;;;;;;1.60;1.00;;;13.30;99.90;;;;;;4968888;28;20050;-89
2022/10/01 07:31:20;;;;;;;2.60;1.50;;;13.40;99.90;;;;;;5003835;28;20034;-86
2022/10/01 07:33:47;;;;;;;2.53;1.30;;;13.40;99.90;;;;;;5009308;28;20042;-81
2022/10/01 07:36:12;;;;;;;2.75;2.55;;;13.40;99.90;;;;;;5025214;28;20029;-82
2022/10/01 07:38:38;;;;;;;3.65;1.90;;;13.40;99.90;;;;;;5009622;28;20394;-86
2022/10/01 07:41:04;;;;;;;4.05;3.28;;;13.50;99.90;;;;;;5012212;28;20113;-87
2022/10/01 07:43:33;;;;;;;3.78;2.20;;;13.50;99.90;;;;;;5015297;28;20069;-82
2022/10/01 07:46:00;;;;;;;3.30;2.47;;;13.50;99.90;;;;;;5014595;28;20022;-84
2022/10/01 07:48:26;;;;;;;4.35;3.15;;;13.50;99.90;;;;;;4998960;28;20487;-87
2022/10/01 07:50:52;;;;;;;6.72;5.70;;;13.60;99.90;;;;;;5009116;28;20118;-86
2022/10/01 07:53:18;;;;;;;3.40;2.88;;;13.60;99.90;;;;;;5009199;28;20121;-84
2022/10/01 07:55:44;;;;;;;4.43;3.15;;;13.70;99.90;;;;;;5014368;28;20022;-84
2022/10/01 07:58:13;;;;;;;6.43;4.40;;;13.80;99.90;;;;;;5009314;28;20041;-83
2022/10/01 08:00:39;;;;;;;4.70;4.22;;;13.80;99.90;;;;;;5007788;28;20030;-88
2022/10/01 08:03:04;;;;;;;4.40;3.53;;;13.90;99.90;;;;;;5009689;28;20160;-85
2022/10/01 08:05:33;;;;;;;7.55;6.63;;;13.90;99.90;;;;;;5009197;28;20117;-86
2022/10/01 08:08:02;;;;;;;4.35;3.95;;;14.00;99.90;;;;;;4989303;28;20040;-87
2022/10/01 08:10:28;;;;;;;5.35;3.35;;;14.10;99.90;;;;;;5025320;28;20105;-84
2022/10/01 08:13:06;;;;;;;5.28;4.78;;;14.20;99.90;;;;;;5009842;28;20061;-86
2022/10/01 08:15:33;;;;;;;6.53;4.82;;;14.40;99.90;;;;;;5006828;28;20029;-87
2022/10/01 08:18:03;;;;;;;5.82;3.97;;;14.50;99.90;;;;;;5012781;28;20054;-84
2022/10/01 08:20:28;;;;;;;;;;;14.70;99.90;;;;;;5024697;28;20061;-85
2022/10/01 08:23:00;;;;;;;5.25;4.47;;;14.50;99.90;;;;;;5025513;28;19952;-81
2022/10/01 08:25:26;;;;;;;6.68;5.50;;;14.70;99.90;;;;;;5008504;28;20033;-85
2022/10/01 08:27:52;;;;;;;10.93;6.72;;;14.70;99.90;;;;;;5009075;28;20030;-82
2022/10/01 08:30:17;;;;;;;10.13;6.30;;;14.60;99.90;;;;;;5025068;28;20022;-84
2022/10/01 08:32:43;;;;;;;8.38;6.72;;;14.70;99.90;;;;;;5011945;28;20495;-81
2022/10/01 08:35:09;;;;;;;5.97;5.10;;;14.50;99.90;;;;;;5024512;28;20477;-83
2022/10/01 08:37:34;;;;;;;5.82;3.95;;;14.70;99.90;;;;;;5025202;28;20022;-86
2022/10/01 08:40:00;;;;;;;4.78;4.38;;;14.80;99.90;;;;;;5025449;28;20107;-84
2022/10/01 08:42:54;;;;;;;7.50;6.70;;;14.60;99.90;;;;;;5009560;28;20486;-87
2022/10/01 08:45:46;;;;;;;6.22;5.68;;;14.50;99.90;;;;;;5017688;28;20095;-82
2022/10/01 08:48:29;;;;;;;7.00;6.40;;;14.60;99.90;;;;;;5005373;28;20057;-81
2022/10/01 08:51:03;;;;;;;6.20;4.43;;;14.50;99.90;;;;;;5023213;28;20113;-81
2022/10/01 08:53:44;;;;;;;4.82;4.43;;;14.40;99.90;;;;;;5007909;28;20153;-86
2022/10/01 08:56:29;;;;;;;5.13;4.28;;;14.40;99.90;;;;;;5009380;28;20608;-88
2022/10/01 08:59:04;;;;;;;9.75;8.95;;;14.30;99.90;;;;;;5010736;28;20056;-88
2022/10/01 09:01:30;;;;;;;7.78;7.07;;;14.20;99.90;;;;;;5009434;28;20033;-89
2022/10/01 09:03:57;;;;;;;7.10;6.40;;;14.30;99.90;;;;;;5007747;28;20033;-88
2022/10/01 09:06:25;;;;;;;8.82;8.00;;;14.40;99.90;;;;;;5024501;28;20121;-84
2022/10/01 09:09:34;;;;;;;7.22;6.53;;;14.40;99.90;;;;;;5010432;28;20545;-92
2022/10/01 09:12:03;;;;;;;9.52;8.45;;;14.60;99.90;;;;;;5019171;28;20026;-84
2022/10/01 09:14:34;;;;;;;13.05;10.05;;;14.70;99.90;;;;;;5008981;28;20049;-89
2022/10/01 09:17:21;;;;;;;9.65;8.63;;;14.80;99.90;;;;;;5008036;28;20105;-86
2022/10/01 09:20:09;;;;;;;11.05;9.70;;;14.80;99.90;;;;;;5021754;28;20644;-85
2022/10/01 09:23:02;;;;;;;10.18;9.13;;;14.80;99.90;;;;;;5024525;28;20124;-89
2022/10/01 09:25:28;;;;;;;10.05;9.05;;;14.80;99.90;;;;;;5016498;28;20380;-90
2022/10/01 09:28:05;;;;;;;8.07;6.93;;;14.60;99.90;;;;;;5009654;28;20500;-87
2022/10/01 09:30:33;;;;;;;7.13;5.95;;;14.40;99.90;;;;;;5007871;28;20535;-83
2022/10/01 09:33:05;;;;;;;10.02;6.22;;;14.40;99.90;;;;;;5024467;28;20030;-90
2022/10/01 09:35:42;;;;;;;9.55;7.15;;;14.40;99.90;;;;;;5024451;28;20033;-93
2022/10/01 09:39:00;;;;;;;7.38;5.80;;;14.80;99.90;;;;;;5007651;28;20151;-88
2022/10/01 09:41:26;;;;;;;6.00;5.10;;;15.20;99.90;;;;;;4955019;28;20092;-86
2022/10/01 09:43:52;;;;;;;5.72;4.32;;;15.00;99.90;;;;;;5006078;28;20026;-82
2022/10/01 09:46:19;;;;;;;3.80;3.50;;;15.00;99.90;;;;;;5022959;28;20741;-86
2022/10/01 09:48:55;;;;;;;6.55;3.97;;;14.90;99.90;;;;;;5008862;28;20037;-91
2022/10/01 09:51:31;;;;;;;2.75;2.28;;;14.80;99.90;;;;;;5006809;28;20041;-95
2022/10/01 09:54:09;;;;;;;4.18;2.58;;;14.80;99.90;;;;;;5007715;28;20482;-86
2022/10/01 09:56:52;;;;;;;5.97;2.42;;;14.70;99.90;;;;;;5007888;28;20070;-91
2022/10/01 09:59:24;;;;;;;6.63;4.20;;;14.70;99.90;;;;;;5011287;28;20034;-91
2022/10/01 10:01:59;;;;;;;5.45;2.75;;;14.70;99.90;;;;;;5005804;28;20160;-90
2022/10/01 10:04:25;;;;;;;5.00;2.78;;;14.80;99.90;;;;;;5023850;28;20033;-82
2022/10/01 10:07:01;;;;;;;6.95;1.67;;;15.00;99.90;;;;;;5023761;28;20044;-89
2022/10/01 10:09:32;;;;;;;5.03;0.80;;;15.20;99.90;;;;;;5007312;28;20030;-89
2022/10/01 10:11:59;;;;;;;8.40;1.02;;;15.40;99.90;;;;;;5007248;28;20412;-85
2022/10/01 10:14:37;;;;;;;2.05;0.40;;;15.30;99.90;;;;;;5004074;28;20494;-83
2022/10/01 10:17:10;;;;;;;5.28;0.50;;;15.10;99.90;;;;;;5011327;28;20045;-84
2022/10/01 10:19:36;;;;;;;6.60;0.60;;;15.00;99.90;;;;;;4990847;28;20040;-86
2022/10/01 10:22:31;;;;;;;2.90;0.40;;;15.20;99.90;;;;;;5021129;28;20057;-87
2022/10/01 10:25:09;;;;;;;3.85;0.30;;;15.40;99.90;;;;;;5014867;28;20034;-84
2022/10/01 10:27:35;;;;;;;5.53;0.63;;;15.30;99.90;;;;;;5007021;28;20517;-83
2022/10/01 10:30:15;;;;;;;5.43;0.50;;;15.50;99.90;;;;;;5008319;28;20029;-86
2022/10/01 10:32:43;;;;;;;6.35;0.40;;;15.90;99.90;;;;;;5023144;28;20092;-84
2022/10/01 10:35:21;;;;;;;3.50;0.30;;;15.90;99.90;;;;;;5009679;28;20117;-87
2022/10/01 10:37:50;;;;;;;3.50;0.40;;;16.10;99.90;;;;;;5022781;28;20026;-84
2022/10/01 10:40:19;;;;;;;5.97;0.40;;;16.20;99.90;;;;;;5022716;28;20034;-81
2022/10/01 10:42:50;;;;;;;4.00;0.70;;;16.20;99.90;;;;;;5006993;28;20046;-84
2022/10/01 10:45:20;;;;;;;5.30;0.50;;;16.30;99.90;;;;;;5005059;28;20040;-83
2022/10/01 10:47:50;;;;;;;4.63;0.50;;;16.50;99.90;;;;;;5022950;28;20111;-80
2022/10/01 10:50:30;;;;;;;4.55;0.30;;;16.50;99.90;;;;;;5006815;28;20478;-82
2022/10/01 10:52:57;;;;;;;6.85;0.80;;;16.50;99.90;;;;;;5004889;28;20090;-82
2022/10/01 10:55:30;;;;;;;8.07;0.75;;;16.40;99.90;;;;;;5021907;28;20033;-82
2022/10/01 10:58:13;;;;;;;4.68;0.40;;;16.40;99.90;;;;;;5006631;28;20026;-84
2022/10/01 11:00:46;;;;;;;4.03;0.60;;;16.70;99.90;;;;;;5007124;28;20018;-84
2022/10/01 11:03:15;;;;;;;4.45;0.32;;;16.90;99.90;;;;;;5006699;28;20034;-81
2022/10/01 11:05:42;;;;;;;8.47;0.60;;;17.20;99.90;;;;;;5022421;28;20540;-83
2022/10/01 11:08:17;;;;;;;6.47;0.45;;;17.20;99.90;;;;;;5005835;28;20030;-85
2022/10/01 11:11:04;;;;;;;6.38;0.40;;;17.30;99.90;;;;;;5007673;28;20061;-87
2022/10/01 11:13:58;;;;;;;5.85;0.47;;;17.40;99.90;;;;;;5006001;28;20074;-83
2022/10/01 11:16:50;;;;;;;6.78;0.30;;;17.20;99.90;;;;;;5005655;28;20048;-84
2022/10/01 11:19:44;;;;;;;6.57;0.30;;;17.30;99.90;;;;;;5021999;28;20046;-82
2022/10/01 11:22:28;;;;;;;4.90;0.30;;;17.30;99.90;;;;;;5006522;28;20489;-86
2022/10/01 11:25:22;;;;;;;6.25;0.40;;;17.00;99.90;;;;;;5004939;28;20109;-87
2022/10/01 11:27:55;;;;;;;3.30;0.30;;;16.60;99.90;;;;;;5006040;28;20501;-85
2022/10/01 11:30:41;;;;;;;5.68;0.43;;;16.30;99.90;;;;;;5004432;28;20120;-86
2022/10/01 11:33:29;;;;;;;4.80;0.40;;;16.00;99.90;;;;;;5007397;28;20066;-86
2022/10/01 11:36:11;;;;;;;6.65;0.40;;;15.60;99.90;;;;;;4987976;28;20084;-85
2022/10/01 11:38:43;;;;;;;4.57;0.30;;;15.30;99.90;;;;;;5006211;28;20072;-88
2022/10/01 11:41:25;;;;;;;4.25;0.28;;;15.30;99.90;;;;;;5007299;28;20033;-84
2022/10/01 11:43:59;;;;;;;4.68;0.52;;;15.70;99.90;;;;;;5022069;28;20041;-87
2022/10/01 11:47:02;;;;;;;3.72;0.50;;;15.90;99.90;;;;;;5005635;28;20048;-85
2022/10/01 11:49:47;;;;;;;5.57;0.32;;;16.20;99.90;;;;;;5005665;28;20035;-88
2022/10/01 11:52:45;;;;;;;7.68;0.50;;;16.40;99.90;;;;;;5006275;28;20489;-86
2022/10/01 12:01:13;;;;;;;9.25;0.50;;;16.60;99.90;;;;;;5010097;28;20034;-84
2022/10/01 12:04:00;;;;;;;9.25;0.40;;;16.90;99.90;;;;;;4993184;28;20032;-86
2022/10/01 12:06:43;;;;;;;4.85;0.55;;;16.80;99.90;;;;;;5009062;28;20048;-83
2022/10/01 12:09:15;;;;;;;8.63;0.40;;;16.80;99.90;;;;;;5008702;28;20042;-83
2022/10/01 12:12:19;;;;;;;4.78;0.32;;;16.90;99.90;;;;;;5024808;28;20045;-84
2022/10/01 12:14:55;;;;;;;5.97;0.40;;;16.60;99.90;;;;;;4987106;28;20495;-83
2022/10/01 12:17:35;;;;;;;5.15;0.30;;;16.40;99.90;;;;;;5024981;28;20105;-85
2022/10/01 12:20:03;;;;;;;5.38;0.30;;;16.30;99.90;;;;;;5010155;28;20446;-84
2022/10/01 12:22:34;;;;;;;4.65;0.50;;;16.70;99.90;;;;;;5014682;28;20064;-86
2022/10/01 12:25:00;;;;;;;4.20;0.30;;;16.90;99.90;;;;;;5024442;28;20112;-84
2022/10/01 12:27:55;;;;;;;5.60;0.30;;;17.00;99.90;;;;;;5008183;28;20122;-85
2022/10/01 12:30:32;;;;;;;8.20;0.88;;;17.10;99.90;;;;;;5007056;28;20782;-86
2022/10/01 12:33:13;;;;;;;9.13;0.63;;;17.10;99.90;;;;;;5010541;28;20123;-86
2022/10/01 12:36:11;;;;;;;3.55;0.25;;;17.10;99.90;;;;;;5009148;28;20030;-88
2022/10/01 12:39:02;;;;;;;8.27;0.50;;;17.20;99.90;;;;;;4987976;28;20041;-85
2022/10/01 12:41:56;;;;;;;4.85;0.30;;;17.50;99.90;;;;;;5024248;28;20096;-84
2022/10/01 12:44:55;;;;;;;4.95;0.30;;;17.10;99.90;;;;;;5024318;28;20188;-84
2022/10/01 12:47:48;;;;;;;5.70;0.30;;;16.80;99.90;;;;;;4933446;28;20404;-84
2022/10/01 12:50:22;;;;;;;4.47;0.30;;;16.70;99.90;;;;;;4920944;28;20109;-83
2022/10/01 12:53:44;;;;;;;4.07;0.20;;;17.10;99.90;;;;;;4957190;28;20381;-86
2022/10/01 12:56:21;;;;;;;5.28;0.20;;;16.80;99.90;;;;;;4932897;28;20098;-83
2022/10/01 12:59:05;;;;;;;2.92;0.38;;;16.30;99.90;;;;;;4935434;28;20145;-85
2022/10/01 13:02:06;;;;;;;4.10;0.30;;;15.20;99.90;;;;;;4948259;28;20034;-85
2022/10/01 13:04:55;;;;;;;2.97;0.40;;;15.30;99.90;;;;;;4935512;28;20031;-85
2022/10/01 13:07:41;;;;;;;3.67;0.20;;;15.60;99.90;;;;;;4935122;28;20357;-87
2022/10/01 13:10:19;;;;;;;3.67;0.40;;;15.70;99.90;;;;;;4935334;28;20023;-84
2022/10/01 13:12:58;;;;;;;5.72;0.38;;;15.50;99.90;;;;;;4943712;28;20053;-86
2022/10/01 13:15:38;;;;;;;4.90;0.30;;;15.50;99.90;;;;;;4940823;28;20245;-87
2022/10/01 13:18:24;;;;;;;8.48;0.30;;;15.50;99.90;;;;;;4934955;28;20573;-85
2022/10/01 13:21:04;;;;;;;7.50;0.40;;;15.60;99.90;;;;;;4955253;28;20038;-84
2022/10/01 13:23:52;;;;;;;4.45;0.40;;;16.00;99.90;;;;;;4931003;28;20585;-83